Col Jabara, KS

00:31 CDT le 29 août 2014 (GMT -0500)
McConnell Air Force Base | Change Station
CLOSE
Current Station
Aéroport
Location: McConnell AFB,
Altitude: 1371 ft
Stations météo à proximité

Alt. 1371 ft 37.62 °N, 97.27 °W | Updated 27 minutes ago

Mostly Cloudy
Nuageux
68 ° F
Paraît 68 ° F
N
12
Vent Variable Vent de SE

Aujourd'hui
Haut(e) -- | Bas -- ° F
--% Risque de précip.
Hier
Haut(e) -- | Bas -- ° F
Precip. -- pouce
6:56 AM 8:02 PM
Lune montante, 12% visible
Pression 29.91 pouce
Visibilité 10.0 Miles terrestres
Nuages Nuages épars 6000 ft
Nuageux 21000 ft
Point de rosée 68 ° F
Humidité 100%
Précipitations 0.00 pouce
Profondeur de la couche neigeuse Non disponible.
UV 0 sur 12
Pollen 10.70 sur 12
Qualité de l'air Non disponible.
Flu Activity Non disponible.
SPECI KIAB 290504Z AUTO 14010KT 10SM SCT060 BKN210 20/20 A2991 RMK AO2 LTG DSNT SE RAE0504

More Conditions Fewer Conditions

Pression 29.91 pouce
Visibilité 10.0 Miles terrestres
Nuages Nuages épars 6000 ft
Nuageux 21000 ft
Point de rosée 68 ° F
Humidité 100%
Précipitations 0.00 pouce
Profondeur de la couche neigeuse Non disponible.
UV 0 sur 12
Pollen 10.70 sur 12
Qualité de l'air Non disponible.
Flu Activity Non disponible.
SPECI KIAB 290504Z AUTO 14010KT 10SM SCT060 BKN210 20/20 A2991 RMK AO2 LTG DSNT SE RAE0504

More Conditions Fewer Conditions

10-Day Weather Forecast

Almanac

Astronomie

Aug. 29, 2014 Lever Coucher
Temps réel 06:56 CDT 20:02 CDT
Crépuscule civil 06:29 CDT 20:29 CDT
Crépuscule nautique 05:57 CDT 21:01 CDT
Crépuscule astronomique 05:23 CDT 21:34 CDT
Lune 10:42 CDT 22:06 CDT
Durée de lumière visible 13h 59m
Longueur du jour
13h 05m
Tomorrow will be 2m 19s shorter.
Lune montante, 12% of the Moon is Illuminated
Aujourd'hui
Lune montante
Sep 2
Premier quartier
Sep 8
Pleine lune
Sep 15
Dernier quartier
Sep 24
Nouveau

Extrêmes aujourd'hui

State Highs State Lows

Community

WunderPhotos

Upload Photos

1,748,196 Photos téléchargées !

Nearby

Épaisseur de neige

Station Depth Altitude
Pas de nouvelles chutes de neige

Activité sismique

Ville Distance Mag. Time & Date
Stillwater, Oklahoma 114 Miles terrestres 3.1 10:44 CDT
2014-08-27
Anthony, Kansas 59 Miles terrestres 2.8 10:11 CDT
2014-08-27
Guthrie, Oklahoma 133 Miles terrestres 3.2 11:05 CDT
2014-08-26
Perry, Oklahoma 107 Miles terrestres 2.5 08:07 CDT
2014-08-26
Minimum magnitude displayed is 2.5.

Températures des eaux côtières

Lieu Température
Aucun rapport de station

Stations météo à proximité